Time;durP1;ratioP1;P1;durP2;ratioP2;P2;SDS_P1;SDS_P2;PMS_P1;PMS_P2;Temp;Humidity;BMP_temperature;BMP_pressure;BME280_temperature;BME280_humidity;BME280_pressure;Samples;Min_cycle;Max_cycle;Signal;HPM_P1;HPM_P2
2022/03/23 00:01:58;;;;;;;;;;;8.30;99.90;;;;;;5003258;28;19922;-79
2022/03/23 00:04:24;;;;;;;;;;;8.40;99.90;;;;;;4995465;28;19993;-79
2022/03/23 00:06:49;;;;;;;;;;;8.30;99.90;;;;;;4990002;28;19921;-79
2022/03/23 00:09:15;;;;;;;;;;;8.30;99.90;;;;;;4987972;28;19964;-79
2022/03/23 00:11:41;;;;;;;;;;;8.50;99.90;;;;;;4999680;28;19917;-79
2022/03/23 00:14:09;;;;;;;;;;;8.20;99.90;;;;;;5006248;28;19921;-79
2022/03/23 00:16:36;;;;;;;;;;;8.20;99.90;;;;;;4988149;28;19922;-79
2022/03/23 00:19:02;;;;;;;;;;;8.30;99.90;;;;;;4992714;28;19917;-79
2022/03/23 00:21:28;;;;;;;;;;;8.10;99.90;;;;;;5004626;28;20378;-79
2022/03/23 00:23:53;;;;;;;;;;;8.10;99.90;;;;;;5002425;28;19921;-79
2022/03/23 00:26:19;;;;;;;;;;;8.00;99.90;;;;;;4990140;28;19918;-79
2022/03/23 00:28:45;;;;;;;;;;;7.90;99.90;;;;;;5008261;28;19929;-79
2022/03/23 00:31:10;;;;;;;;;;;7.80;99.90;;;;;;4997843;28;19941;-79
2022/03/23 00:33:36;;;;;;;;;;;7.80;99.90;;;;;;4992364;28;20308;-79
2022/03/23 00:36:03;;;;;;;;;;;7.80;99.90;;;;;;5002434;28;19926;-79
2022/03/23 00:38:29;;;;;;;;;;;7.80;99.90;;;;;;5006583;28;19925;-79
2022/03/23 00:40:55;;;;;;;;;;;7.80;99.90;;;;;;4998602;28;19926;-79
2022/03/23 00:43:21;;;;;;;;;;;7.80;99.90;;;;;;5006938;28;19995;-79
2022/03/23 00:45:47;;;;;;;;;;;7.70;99.90;;;;;;4994676;28;20415;-79
2022/03/23 00:48:12;;;;;;;;;;;7.70;99.90;;;;;;5016778;28;19918;-79
2022/03/23 00:50:38;;;;;;;;;;;7.80;99.90;;;;;;4999331;28;19924;-79
2022/03/23 00:53:04;;;;;;;;;;;7.80;99.90;;;;;;4980861;28;19967;-79
2022/03/23 00:55:30;;;;;;;;;;;8.00;99.90;;;;;;4999424;28;20288;-79
2022/03/23 00:57:55;;;;;;;;;;;7.80;99.90;;;;;;5021587;28;19918;-79
2022/03/23 01:00:22;;;;;;;;;;;7.70;99.90;;;;;;4985152;28;19940;-79
2022/03/23 01:02:48;;;;;;;;;;;7.70;99.90;;;;;;5000225;28;19918;-79
2022/03/23 01:05:14;;;;;;;;;;;7.70;99.90;;;;;;5008581;28;19921;-79
2022/03/23 01:07:40;;;;;;;;;;;7.60;99.90;;;;;;4991552;28;19924;-79
2022/03/23 01:10:07;;;;;;;;;;;7.60;99.90;;;;;;4995827;28;19953;-79
2022/03/23 01:12:32;;;;;;;;;;;7.60;99.90;;;;;;5014421;28;19917;-79
2022/03/23 01:14:58;;;;;;;;;;;7.60;99.90;;;;;;4992714;28;20265;-79
2022/03/23 01:17:24;;;;;;;;;;;7.60;99.90;;;;;;5026192;28;19921;-79
2022/03/23 01:19:50;;;;;;;;;;;7.60;99.90;;;;;;5032332;28;19917;-79
2022/03/23 01:22:16;;;;;;;;;;;7.60;99.90;;;;;;4994977;28;19924;-79
2022/03/23 01:24:42;;;;;;;;;;;7.60;99.90;;;;;;4986137;28;20287;-79
2022/03/23 01:27:08;;;;;;;;;;;7.60;99.90;;;;;;5017000;28;19917;-79
2022/03/23 01:29:34;;;;;;;;;;;7.60;99.90;;;;;;4997700;28;19924;-78
2022/03/23 01:32:00;;;;;;;;;;;7.50;99.90;;;;;;5035089;28;19967;-78
2022/03/23 01:34:25;;;;;;;;;;;7.50;99.90;;;;;;5002077;28;19921;-78
2022/03/23 01:36:51;;;;;;;;;;;7.50;99.90;;;;;;4987166;28;19992;-78
2022/03/23 01:39:16;;;;;;;;;;;7.50;99.90;;;;;;5013004;28;19917;-78
2022/03/23 01:41:42;;;;;;;;;;;7.50;99.90;;;;;;4993938;28;19968;-78
2022/03/23 01:44:15;;;;;;;;;;;7.50;99.90;;;;;;4988715;28;19989;-78
2022/03/23 01:47:07;;;;;;;;;;;7.50;99.90;;;;;;5021665;28;19929;-79
2022/03/23 01:49:36;;;;;;;;;;;7.50;99.90;;;;;;5004271;28;19918;-79
2022/03/23 01:52:02;;;;;;;;;;;7.40;99.90;;;;;;5006093;28;19927;-79
2022/03/23 01:54:28;;;;;;;;;;;7.40;99.90;;;;;;4990382;28;20407;-79
2022/03/23 01:56:55;;;;;;;;;;;7.40;99.90;;;;;;5002407;28;19917;-79
2022/03/23 01:59:21;;;;;;;;;;;7.30;99.90;;;;;;5011982;28;19917;-79
2022/03/23 02:01:47;;;;;;;;;;;7.20;99.90;;;;;;4990181;28;19956;-79
2022/03/23 02:04:13;;;;;;;;;;;7.20;99.90;;;;;;5003436;28;20392;-79
2022/03/23 02:06:38;;;;;;;;;;;7.20;99.90;;;;;;5000786;28;19917;-79
2022/03/23 02:09:04;;;;;;;;;;;7.20;99.90;;;;;;5008986;28;19921;-79
2022/03/23 02:11:32;;;;;;;;;;;7.20;99.90;;;;;;4999292;28;19923;-79
2022/03/23 02:13:57;;;;;;;;;;;7.20;99.90;;;;;;5026092;28;19960;-79
2022/03/23 02:16:24;;;;;;;;;;;7.20;99.90;;;;;;4998027;28;19924;-79
2022/03/23 02:18:49;;;;;;;;;;;7.30;99.90;;;;;;4996576;28;19940;-79
2022/03/23 02:21:15;;;;;;;;;;;7.20;99.90;;;;;;5000388;28;19922;-79
2022/03/23 02:23:41;;;;;;;;;;;8.30;99.90;;;;;;5005421;28;20008;-79
2022/03/23 02:26:08;;;;;;;;;;;7.20;99.90;;;;;;5007839;28;20008;-79
2022/03/23 02:28:34;;;;;;;;;;;7.20;99.90;;;;;;5016527;28;19960;-79
2022/03/23 02:31:01;;;;;;;;;;;7.10;99.90;;;;;;4993782;28;19925;-79
2022/03/23 02:33:26;;;;;;;;;;;7.40;99.90;;;;;;5015025;28;19975;-79
2022/03/23 02:35:52;;;;;;;;;;;7.10;99.90;;;;;;5009441;28;19926;-79
2022/03/23 02:38:18;;;;;;;;;;;7.10;99.90;;;;;;4996208;28;19993;-79
2022/03/23 02:40:44;;;;;;;;;;;7.10;99.90;;;;;;5017812;28;20280;-79
2022/03/23 02:43:09;;;;;;;;;;;7.20;99.90;;;;;;4994789;28;20389;-79
2022/03/23 02:45:35;;;;;;;;;;;7.10;99.90;;;;;;4994503;28;20008;-79
2022/03/23 02:48:02;;;;;;;;;;;7.60;99.90;;;;;;5005763;28;20324;-79
2022/03/23 02:50:27;;;;;;;;;;;7.10;99.90;;;;;;4998853;28;20409;-79
2022/03/23 03:04:16;;;;;;;;;;;6.80;99.90;;;;;;5009113;28;19941;-79
2022/03/23 03:06:41;;;;;;;;;;;6.80;99.90;;;;;;4999629;28;19921;-79
2022/03/23 03:09:07;;;;;;;;;;;6.80;99.90;;;;;;5000611;28;19917;-79
2022/03/23 03:11:32;;;;;;;;;;;6.70;99.90;;;;;;5012033;28;19917;-79
2022/03/23 03:13:58;;;;;;;;;;;6.80;99.90;;;;;;4992533;28;19981;-79
2022/03/23 03:16:24;;;;;;;;;;;6.70;99.90;;;;;;5003428;28;20367;-79
2022/03/23 03:18:49;;;;;;;;;;;6.60;99.90;;;;;;5011688;28;19963;-79
2022/03/23 03:21:15;;;;;;;;;;;6.70;99.90;;;;;;4989427;28;19924;-79
2022/03/23 03:23:42;;;;;;;;;;;6.60;99.90;;;;;;5012591;28;19921;-79
2022/03/23 03:26:08;;;;;;;;;;;6.80;99.90;;;;;;5016325;28;19921;-79
2022/03/23 03:28:34;;;;;;;;;;;6.60;99.90;;;;;;5007531;28;20393;-79
2022/03/23 03:31:04;;;;;;;;;;;6.50;99.90;;;;;;4990968;28;19918;-79
2022/03/23 03:33:30;;;;;;;;;;;6.50;99.90;;;;;;5008451;28;19921;-79
2022/03/23 03:35:55;;;;;;;;;;;6.50;99.90;;;;;;4980634;28;19960;-79
2022/03/23 03:38:21;;;;;;;;;;;6.40;99.90;;;;;;5009330;28;19917;-79
2022/03/23 03:40:46;;;;;;;;;;;6.40;99.90;;;;;;5002528;28;19917;-79
2022/03/23 03:43:12;;;;;;;;;;;6.40;99.90;;;;;;4992329;28;19926;-79
2022/03/23 03:45:38;;;;;;;;;;;6.50;99.90;;;;;;4993925;28;19959;-79
2022/03/23 03:48:03;;;;;;;;;;;6.50;99.90;;;;;;5001051;28;19917;-79
2022/03/23 03:50:29;;;;;;;;;;;6.40;99.90;;;;;;4983238;28;19918;-79
2022/03/23 03:52:55;;;;;;;;;;;8.30;99.90;;;;;;4982840;28;19929;-79
2022/03/23 03:55:20;;;;;;;;;;;6.30;99.90;;;;;;4986375;28;19929;-79
2022/03/23 03:57:47;;;;;;;;;;;6.30;99.90;;;;;;4978130;28;19917;-79
2022/03/23 04:00:13;;;;;;;;;;;6.30;99.90;;;;;;5001141;28;19981;-79
2022/03/23 04:02:38;;;;;;;;;;;6.20;99.90;;;;;;4984320;28;19960;-79
2022/03/23 04:05:04;;;;;;;;;;;6.20;99.90;;;;;;4992349;28;19932;-79
2022/03/23 04:07:33;;;;;;;;;;;6.20;99.90;;;;;;5016270;28;19917;-79
2022/03/23 04:10:02;;;;;;;;;;;6.20;99.90;;;;;;4998117;28;19928;-79
2022/03/23 04:12:28;;;;;;;;;;;6.20;99.90;;;;;;4991072;28;19917;-79
2022/03/23 04:14:54;;;;;;;;;;;6.20;99.90;;;;;;4991814;28;19925;-79
2022/03/23 04:17:19;;;;;;;;;;;6.20;99.90;;;;;;4996849;28;19918;-79
2022/03/23 04:19:45;;;;;;;;;;;6.50;99.90;;;;;;5004691;28;19956;-79
2022/03/23 04:22:12;;;;;;;;;;;5.30;99.90;;;;;;5004588;28;19917;-79
2022/03/23 04:24:38;;;;;;;;;;;6.20;99.90;;;;;;4978443;28;19924;-79
2022/03/23 04:27:04;;;;;;;;;;;6.10;99.90;;;;;;4982476;28;20011;-79
2022/03/23 04:29:29;;;;;;;;;;;6.10;99.90;;;;;;4987364;28;19918;-79
2022/03/23 04:31:55;;;;;;;;;;;6.30;99.90;;;;;;4980819;28;19918;-79
2022/03/23 04:34:21;;;;;;;;;;;6.10;99.90;;;;;;4985035;28;19953;-79
2022/03/23 04:36:46;;;;;;;;;;;6.10;99.90;;;;;;4986551;28;19918;-79
2022/03/23 04:39:12;;;;;;;;;;;6.10;99.90;;;;;;4991744;28;19918;-79
2022/03/23 04:41:37;;;;;;;;;;;6.00;99.90;;;;;;4983202;28;19924;-79
2022/03/23 04:44:03;;;;;;;;;;;6.20;99.90;;;;;;4980474;28;19917;-79
2022/03/23 04:46:29;;;;;;;;;;;6.00;99.90;;;;;;4999280;28;19918;-79
2022/03/23 04:48:54;;;;;;;;;;;6.00;99.90;;;;;;4983455;28;19929;-79
2022/03/23 04:51:20;;;;;;;;;;;5.90;99.90;;;;;;4987905;28;20339;-79
2022/03/23 04:53:45;;;;;;;;;;;5.80;99.90;;;;;;4987794;28;19921;-79
2022/03/23 04:56:11;;;;;;;;;;;5.90;99.90;;;;;;4990596;28;19925;-79
2022/03/23 04:58:37;;;;;;;;;;;5.80;99.90;;;;;;5008137;28;19917;-79
2022/03/23 05:01:02;;;;;;;;;;;6.00;99.90;;;;;;4992512;28;19976;-79
2022/03/23 05:03:28;;;;;;;;;;;5.70;99.90;;;;;;5008887;28;19918;-79
2022/03/23 05:05:54;;;;;;;;;;;5.80;99.90;;;;;;4999888;28;19959;-79
2022/03/23 05:08:19;;;;;;;;;;;5.60;99.90;;;;;;4986038;28;19922;-79
2022/03/23 05:10:45;;;;;;;;;;;5.70;99.90;;;;;;4991760;28;20456;-79
2022/03/23 05:13:11;;;;;;;;;;;5.80;99.90;;;;;;4992298;28;19964;-79
2022/03/23 05:15:37;;;;;;;;;;;5.90;99.90;;;;;;4996734;28;19921;-79
2022/03/23 05:18:03;;;;;;;;;;;5.90;99.90;;;;;;4986112;28;19941;-79
2022/03/23 05:20:29;;;;;;;;;;;6.00;99.90;;;;;;4990429;28;19926;-79
2022/03/23 05:22:54;;;;;;;;;;;5.90;99.90;;;;;;4983012;28;20402;-79
2022/03/23 05:25:21;;;;;;;;;;;5.90;99.90;;;;;;4989021;28;19917;-79
2022/03/23 05:27:46;;;;;;;;;;;5.90;99.90;;;;;;4982528;28;20075;-79
2022/03/23 05:30:12;;;;;;;;;;;5.90;99.90;;;;;;5004270;28;19956;-79
2022/03/23 05:32:39;;;;;;;;;;;5.90;99.90;;;;;;4999695;28;19968;-79
2022/03/23 05:35:05;;;;;;;;;;;5.90;99.90;;;;;;5002841;28;19926;-79
2022/03/23 05:37:31;;;;;;;;;;;5.80;99.90;;;;;;5023644;28;19925;-79
2022/03/23 05:39:57;;;;;;;;;;;5.80;99.90;;;;;;4976914;28;20452;-79
2022/03/23 05:42:22;;;;;;;;;;;5.80;99.90;;;;;;5007479;28;20012;-78
2022/03/23 05:44:48;;;;;;;;;;;5.80;99.90;;;;;;5003094;28;19953;-78
2022/03/23 05:47:14;;;;;;;;;;;5.70;99.90;;;;;;5005751;28;19949;-78
2022/03/23 05:49:39;;;;;;;;;;;5.80;99.90;;;;;;4999365;28;20010;-78
2022/03/23 05:52:05;;;;;;;;;;;5.80;99.90;;;;;;4993210;28;19928;-78
2022/03/23 05:54:31;;;;;;;;;;;5.70;99.90;;;;;;4998378;28;19925;-78
2022/03/23 05:56:57;;;;;;;;;;;5.80;99.90;;;;;;4994871;28;20419;-78
2022/03/23 05:59:23;;;;;;;;;;;6.10;99.90;;;;;;5008486;28;19921;-78
2022/03/23 06:01:48;;;;;;;;;;;5.80;99.90;;;;;;4991712;28;19918;-78
2022/03/23 06:04:14;;;;;;;;;;;5.80;99.90;;;;;;5002554;28;20343;-78
2022/03/23 06:06:40;;;;;;;;;;;5.80;99.90;;;;;;4991390;28;19921;-78
2022/03/23 06:09:05;;;;;;;;;;;6.40;99.90;;;;;;4994610;28;20004;-78
2022/03/23 06:11:31;;;;;;;;;;;5.80;99.90;;;;;;5005642;28;20381;-78
2022/03/23 06:13:57;;;;;;;;;;;5.80;99.90;;;;;;5011864;28;19973;-78
2022/03/23 06:16:23;;;;;;;;;;;6.50;99.90;;;;;;5009110;28;19917;-78
2022/03/23 06:18:48;;;;;;;;;;;5.80;99.90;;;;;;4999411;28;19918;-78
2022/03/23 06:21:14;;;;;;;;;;;5.90;99.90;;;;;;5011673;28;20403;-78
2022/03/23 06:23:40;;;;;;;;;;;5.70;99.90;;;;;;4998394;28;20303;-78
2022/03/23 06:26:05;;;;;;;;;;;5.70;99.90;;;;;;4999119;28;19963;-78
2022/03/23 06:28:31;;;;;;;;;;;5.70;99.90;;;;;;4994820;28;20358;-78
2022/03/23 06:30:58;;;;;;;;;;;6.00;99.90;;;;;;4979559;28;20026;-78
2022/03/23 06:33:23;;;;;;;;;;;6.80;99.90;;;;;;5017120;28;19918;-78
2022/03/23 06:35:49;;;;;;;;;;;6.40;99.90;;;;;;5001493;28;19948;-78
2022/03/23 06:38:15;;;;;;;;;;;7.10;99.90;;;;;;5021201;28;19928;-78
2022/03/23 06:40:41;;;;;;;;;;;7.70;99.90;;;;;;4992557;28;19917;-78
2022/03/23 06:43:07;;;;;;;;;;;8.20;99.90;;;;;;5001084;28;19917;-78
2022/03/23 06:45:32;;;;;;;;;;;8.80;99.90;;;;;;4991242;28;19925;-78
2022/03/23 06:47:58;;;;;;;;;;;9.30;99.90;;;;;;4971762;28;19928;-80
2022/03/23 06:50:24;;;;;;;;;;;9.60;99.90;;;;;;4995222;28;20316;-79
2022/03/23 06:52:50;;;;;;;;;;;10.10;99.90;;;;;;4983204;28;19921;-78
2022/03/23 06:55:16;;;;;;;;;;;10.40;99.90;;;;;;4991859;28;19921;-78
2022/03/23 06:57:41;;;;;;;;;;;10.70;99.90;;;;;;5010539;28;19917;-78
2022/03/23 07:00:13;;;;;;;;;;;11.10;99.90;;;;;;4987739;28;19925;-78
2022/03/23 07:02:42;;;;;;;;;;;11.40;99.90;;;;;;4998507;28;19918;-78
2022/03/23 07:05:08;;;;;;;;;;;12.00;99.90;;;;;;4987342;28;19924;-78
2022/03/23 07:07:35;;;;;;;;;;;12.20;95.90;;;;;;4993502;28;19972;-79
2022/03/23 07:10:01;;;;;;;;;;;12.10;92.60;;;;;;5005275;28;20000;-80
2022/03/23 07:12:27;;;;;;;;;;;12.20;95.80;;;;;;5003350;28;19940;-80
2022/03/23 07:14:52;;;;;;;;;;;12.20;90.40;;;;;;4975866;28;19921;-80
2022/03/23 07:17:18;;;;;;;;;;;11.90;94.50;;;;;;5008773;28;19925;-81
2022/03/23 07:19:44;;;;;;;;;;;12.50;93.00;;;;;;4995074;28;19917;-81
2022/03/23 07:22:11;;;;;;;;;;;12.30;94.30;;;;;;4984526;28;19921;-82
2022/03/23 07:24:37;;;;;;;;;;;12.00;90.90;;;;;;4987362;28;19967;-82
2022/03/23 07:27:03;;;;;;;;;;;11.70;88.40;;;;;;5006935;28;20264;-82
2022/03/23 07:29:28;;;;;;;;;;;11.40;87.50;;;;;;5002217;28;19921;-82
2022/03/23 07:31:54;;;;;;;;;;;11.20;84.50;;;;;;4973891;28;19921;-80
2022/03/23 07:34:20;;;;;;;;;;;11.10;83.80;;;;;;5010095;28;20262;-80
2022/03/23 07:36:47;;;;;;;;;;;10.90;84.30;;;;;;4986995;28;19918;-80
2022/03/23 07:39:16;;;;;;;;;;;10.90;87.20;;;;;;4996400;28;20252;-79
2022/03/23 07:41:42;;;;;;;;;;;10.90;86.60;;;;;;4986854;28;19960;-79
2022/03/23 07:44:09;;;;;;;;;;;10.90;84.20;;;;;;4987085;28;19921;-79
2022/03/23 07:46:35;;;;;;;;;;;11.00;82.10;;;;;;4993385;28;19921;-80
2022/03/23 07:49:01;;;;;;;;;;;11.10;81.40;;;;;;5001763;28;19918;-80
2022/03/23 07:51:26;;;;;;;;;;;11.10;81.30;;;;;;4970093;28;19969;-80
2022/03/23 07:53:52;;;;;;;;;;;11.20;83.10;;;;;;4979815;28;19921;-80
2022/03/23 07:56:17;;;;;;;;;;;11.20;80.30;;;;;;4981847;28;19932;-80
2022/03/23 07:58:43;;;;;;;;;;;11.30;84.30;;;;;;4993074;28;19917;-80
2022/03/23 08:01:08;;;;;;;;;;;11.40;82.50;;;;;;4977586;28;19972;-80
2022/03/23 08:03:34;;;;;;;;;;;11.50;84.00;;;;;;4972147;28;20275;-80
2022/03/23 08:06:00;;;;;;;;;;;11.60;83.00;;;;;;4979007;28;19917;-80
2022/03/23 08:08:25;;;;;;;;;;;11.70;79.80;;;;;;4982382;28;19922;-80
2022/03/23 08:10:51;;;;;;;;;;;11.70;78.30;;;;;;4972249;28;19971;-80
2022/03/23 08:13:17;;;;;;;;;;;11.90;74.50;;;;;;4984335;28;19956;-80
2022/03/23 08:15:43;;;;;;;;;;;11.90;71.00;;;;;;4995039;28;19921;-80
2022/03/23 08:18:09;;;;;;;;;;;11.90;69.00;;;;;;4984472;28;20439;-81
2022/03/23 08:20:37;;;;;;;;;;;11.90;72.00;;;;;;4985150;28;19944;-80
2022/03/23 08:23:03;;;;;;;;;;;12.00;71.10;;;;;;4978396;28;19925;-81
2022/03/23 08:25:29;;;;;;;;;;;12.00;69.40;;;;;;4976634;28;19917;-79
2022/03/23 08:27:55;;;;;;;;;;;12.10;67.90;;;;;;4987831;28;19929;-78
2022/03/23 08:30:21;;;;;;;;;;;12.10;70.70;;;;;;4984366;28;19918;-79
2022/03/23 08:32:46;;;;;;;;;;;12.20;70.30;;;;;;4977096;28;19941;-79
2022/03/23 08:35:12;;;;;;;;;;;12.30;70.80;;;;;;4973260;28;20277;-79
2022/03/23 08:37:38;;;;;;;;;;;12.40;70.10;;;;;;4991789;28;19980;-79
2022/03/23 08:40:05;;;;;;;;;;;12.60;68.40;;;;;;4969352;28;19921;-79
2022/03/23 08:42:30;;;;;;;;;;;12.70;65.20;;;;;;4988379;28;19940;-79
2022/03/23 08:44:56;;;;;;;;;;;12.90;67.00;;;;;;4986019;28;19921;-78
2022/03/23 08:47:22;;;;;;;;;;;13.40;72.00;;;;;;4971466;28;19925;-78
2022/03/23 08:49:48;;;;;;;;;;;13.60;65.60;;;;;;4980036;28;20042;-78
2022/03/23 08:52:13;;;;;;;;;;;13.80;60.80;;;;;;4980214;28;20359;-78
2022/03/23 08:54:39;;;;;;;;;;;13.90;58.50;;;;;;4993621;28;20805;-79
2022/03/23 08:57:05;;;;;;;;;;;14.20;61.10;;;;;;4977833;28;19921;-80
2022/03/23 08:59:30;;;;;;;;;;;14.50;60.00;;;;;;4985967;28;19918;-80
2022/03/23 09:01:56;;;;;;;;;;;14.80;58.50;;;;;;5007075;28;20285;-79
2022/03/23 09:04:22;;;;;;;;;;;15.10;59.20;;;;;;5012561;28;19924;-79
2022/03/23 09:06:48;;;;;;;;;;;15.30;60.50;;;;;;4989731;28;19917;-79
2022/03/23 09:09:13;;;;;;;;;;;15.50;55.10;;;;;;4984851;28;19917;-79
2022/03/23 09:11:41;;;;;;;;;;;15.60;51.40;;;;;;4995771;28;20391;-79
2022/03/23 09:14:07;;;;;;;;;;;15.60;50.60;;;;;;4976164;28;19929;-79
2022/03/23 09:16:33;;;;;;;;;;;15.70;50.40;;;;;;5008576;28;19924;-79
2022/03/23 09:19:02;;;;;;;;;;;15.80;49.90;;;;;;4979428;28;19922;-79
2022/03/23 09:21:27;;;;;;;;;;;15.90;52.60;;;;;;4976049;28;19917;-79
2022/03/23 09:23:53;;;;;;;;;;;16.10;49.60;;;;;;4981241;28;19918;-79
2022/03/23 09:26:18;;;;;;;;;;;16.40;51.40;;;;;;4972361;28;19957;-79
2022/03/23 09:28:44;;;;;;;;;;;16.70;52.60;;;;;;4991020;28;19921;-80
2022/03/23 09:31:10;;;;;;;;;;;16.80;49.40;;;;;;4981246;28;19929;-80
2022/03/23 09:33:36;;;;;;;;;;;16.90;48.60;;;;;;4988067;28;19921;-79
2022/03/23 09:36:02;;;;;;;;;;;17.00;45.50;;;;;;4985365;28;19928;-79
2022/03/23 09:38:27;;;;;;;;;;;17.10;45.80;;;;;;5007377;28;19918;-79
2022/03/23 09:40:54;;;;;;;;;;;17.40;44.00;;;;;;4980800;28;20402;-78
2022/03/23 09:43:21;;;;;;;;;;;17.50;39.40;;;;;;4981238;28;19936;-79
2022/03/23 09:45:47;;;;;;;;;;;17.50;40.70;;;;;;4993505;28;19917;-79
2022/03/23 09:48:17;;;;;;;;;;;17.50;41.10;;;;;;4982792;28;19968;-79
2022/03/23 09:50:44;;;;;;;;;;;17.60;41.60;;;;;;5009581;28;20323;-79
2022/03/23 09:53:10;;;;;;;;;;;17.60;40.90;;;;;;5009944;28;19976;-79
2022/03/23 09:55:36;;;;;;;;;;;17.70;41.60;;;;;;4993724;28;19925;-79
2022/03/23 09:58:02;;;;;;;;;;;17.80;38.40;;;;;;5011716;28;19917;-79
2022/03/23 10:00:33;;;;;;;;;;;17.70;40.10;;;;;;4982110;28;19947;-79
2022/03/23 10:03:11;;;;;;;;;;;17.90;39.10;;;;;;5014814;28;19918;-79
2022/03/23 10:05:55;;;;;;;;;;;18.00;38.80;;;;;;4994216;28;19917;-79
2022/03/23 10:08:39;;;;;;;;;;;18.20;39.20;;;;;;4989251;28;20401;-79
2022/03/23 10:11:23;;;;;;;;;;;18.20;35.20;;;;;;4984252;28;19988;-79
2022/03/23 10:14:08;;;;;;;;;;;18.10;37.40;;;;;;4999603;28;19924;-78
2022/03/23 10:16:52;;;;;;;;;;;18.20;37.90;;;;;;4982206;28;19924;-78
2022/03/23 10:19:18;;;;;;;;;;;18.20;35.10;;;;;;4999928;28;20023;-78
2022/03/23 10:21:43;;;;;;;;;;;18.30;36.70;;;;;;4997917;28;20008;-79
2022/03/23 10:24:09;;;;;;;;;;;18.30;34.60;;;;;;4986965;28;19971;-79
2022/03/23 10:26:36;;;;;;;;;;;18.20;31.80;;;;;;4981240;28;19928;-79
2022/03/23 10:29:02;;;;;;;;;;;18.20;33.10;;;;;;5000241;28;19917;-79
2022/03/23 10:31:28;;;;;;;;;;;18.30;35.00;;;;;;5007092;28;20376;-79
2022/03/23 10:33:57;;;;;;;;;;;18.40;35.40;;;;;;4983964;28;19924;-79
2022/03/23 10:36:26;;;;;;;;;;;18.50;35.40;;;;;;4994728;28;20399;-79
2022/03/23 10:38:58;;;;;;;;;;;18.60;33.50;;;;;;4978139;28;19924;-79
2022/03/23 10:41:25;;;;;;;;;;;18.60;34.20;;;;;;4982277;28;19929;-79
2022/03/23 10:43:50;;;;;;;;;;;18.60;32.80;;;;;;4994046;28;19979;-79
2022/03/23 10:46:17;;;;;;;;;;;18.60;33.30;;;;;;4988728;28;19961;-79
2022/03/23 10:48:59;;;;;;;;;;;18.60;34.30;;;;;;4971934;28;19925;-80
2022/03/23 10:51:29;;;;;;;;;;;18.70;34.60;;;;;;4986453;28;20024;-80
2022/03/23 10:53:55;;;;;;;;;;;18.40;32.30;;;;;;4975006;28;19925;-80
2022/03/23 10:56:36;;;;;;;;;;;18.70;32.60;;;;;;4980520;28;19926;-79
2022/03/23 10:59:22;;;;;;;;;;;18.70;32.30;;;;;;4984603;28;19917;-79
2022/03/23 11:02:01;;;;;;;;;;;18.70;34.60;;;;;;4975964;28;19918;-79
2022/03/23 11:04:29;;;;;;;;;;;18.70;32.00;;;;;;4990859;28;19930;-79
2022/03/23 11:06:58;;;;;;;;;;;18.60;35.10;;;;;;4981135;28;20007;-79
2022/03/23 11:18:06;;;;;;;;;;;19.00;34.40;;;;;;5002842;28;19929;-79
2022/03/23 11:20:52;;;;;;;;;;;19.00;34.20;;;;;;4987709;28;19917;-79
2022/03/23 11:23:25;;;;;;;;;;;19.10;34.20;;;;;;4992815;28;19925;-79
2022/03/23 11:25:52;;;;;;;;;;;18.80;32.70;;;;;;4992863;28;19917;-79
2022/03/23 11:28:18;;;;;;;;;;;19.10;33.20;;;;;;5005637;28;19918;-79
2022/03/23 11:30:44;;;;;;;;;;;19.00;33.20;;;;;;4985555;28;19998;-79
2022/03/23 11:33:10;;;;;;;;;;;18.90;34.60;;;;;;4995251;28;19933;-79
2022/03/23 11:35:37;;;;;;;;;;;19.10;32.30;;;;;;4971159;28;19925;-79
2022/03/23 11:38:04;;;;;;;;;;;18.90;32.40;;;;;;4989130;28;20427;-79
2022/03/23 11:40:30;;;;;;;;;;;19.20;33.00;;;;;;4977448;28;20004;-79
2022/03/23 11:42:56;;;;;;;;;;;19.30;32.40;;;;;;4994762;28;19979;-79
2022/03/23 11:45:22;;;;;;;;;;;19.30;31.10;;;;;;4972937;28;20403;-79
2022/03/23 11:47:53;;;;;;;;;;;19.20;33.80;;;;;;4972302;28;19925;-79
2022/03/23 11:50:22;;;;;;;;;;;19.10;34.10;;;;;;4984575;28;19937;-79
2022/03/23 11:53:08;;;;;;;;;;;19.20;34.50;;;;;;4986792;28;19918;-79
2022/03/23 11:55:42;;;;;;;;;;;19.30;31.80;;;;;;4990704;28;19922;-79
2022/03/23 11:58:15;;;;;;;;;;;19.20;30.70;;;;;;4986930;28;19924;-79
2022/03/23 12:00:42;;;;;;;;;;;19.20;32.20;;;;;;4995773;28;20353;-79
2022/03/23 12:03:07;;;;;;;;;;;18.90;30.40;;;;;;4991572;28;20280;-79
2022/03/23 12:05:39;;;;;;;;;;;19.30;32.50;;;;;;4963532;28;19917;-79
2022/03/23 12:08:05;;;;;;;;;;;19.20;31.30;;;;;;5005996;28;20320;-79
2022/03/23 12:10:32;;;;;;;;;;;19.20;29.20;;;;;;4972847;28;19925;-79
2022/03/23 12:13:11;;;;;;;;;;;19.20;31.10;;;;;;4996873;28;20488;-79
2022/03/23 12:15:53;;;;;;;;;;;19.30;31.50;;;;;;4999322;28;19921;-79
2022/03/23 12:18:36;;;;;;;;;;;19.30;30.00;;;;;;5000272;28;20276;-78
2022/03/23 12:21:03;;;;;;;;;;;19.20;30.40;;;;;;5000669;28;19917;-80
2022/03/23 12:23:42;;;;;;;;;;;19.40;30.60;;;;;;5000728;28;19925;-80
2022/03/23 12:26:07;;;;;;;;;;;19.40;29.80;;;;;;4982271;28;19918;-80
2022/03/23 12:28:35;;;;;;;;;;;19.40;31.20;;;;;;4999150;28;19926;-80
2022/03/23 12:31:05;;;;;;;;;;;19.40;31.60;;;;;;4991383;28;19917;-79
2022/03/23 12:33:31;;;;;;;;;;;19.30;30.20;;;;;;5013304;28;20331;-79
2022/03/23 12:36:00;;;;;;;;;;;19.30;31.40;;;;;;5013689;28;19928;-79
2022/03/23 12:38:28;;;;;;;;;;;19.30;30.60;;;;;;4973252;28;19917;-79
2022/03/23 12:40:56;;;;;;;;;;;19.30;31.70;;;;;;4981084;28;19917;-79
2022/03/23 12:43:39;;;;;;;;;;;19.30;31.20;;;;;;5012914;28;20606;-79
2022/03/23 12:46:16;;;;;;;;;;;19.40;32.20;;;;;;4982416;28;19933;-79
2022/03/23 13:00:09;;;;;;;;;;;19.30;33.00;;;;;;4991306;28;20025;-79
2022/03/23 13:02:35;;;;;;;;;;;19.30;33.80;;;;;;4994329;28;20447;-79
2022/03/23 13:05:04;;;;;;;;;;;19.30;34.70;;;;;;4989865;28;19925;-79
2022/03/23 13:07:29;;;;;;;;;;;19.20;32.40;;;;;;4992715;28;19967;-79
2022/03/23 13:10:05;;;;;;;;;;;19.10;31.30;;;;;;4978458;28;19917;-79
2022/03/23 13:12:31;;;;;;;;;;;18.90;32.60;;;;;;4990269;28;19917;-79
2022/03/23 13:15:07;;;;;;;;;;;19.10;33.30;;;;;;4982883;28;19980;-79
2022/03/23 13:17:34;;;;;;;;;;;19.20;31.50;;;;;;4988077;28;20361;-80
2022/03/23 13:20:00;;;;;;;;;;;19.10;32.60;;;;;;4994132;28;19922;-79
2022/03/23 13:22:32;;;;;;;;;;;19.10;31.70;;;;;;4968018;28;19979;-79
2022/03/23 13:25:03;;;;;;;;;;;19.30;32.70;;;;;;4991630;28;19921;-79
2022/03/23 13:27:29;;;;;;;;;;;18.90;32.00;;;;;;4987386;28;20020;-79
2022/03/23 13:30:01;;;;;;;;;;;19.20;32.20;;;;;;4972124;28;20472;-79
2022/03/23 13:32:31;;;;;;;;;;;19.20;32.60;;;;;;4988692;28;19929;-79
2022/03/23 13:34:57;;;;;;;;;;;18.90;32.60;;;;;;4977275;28;19929;-79
2022/03/23 13:37:23;;;;;;;;;;;18.90;32.80;;;;;;4959274;28;19972;-79
2022/03/23 13:39:49;;;;;;;;;;;18.90;33.40;;;;;;4992684;28;20280;-79
2022/03/23 13:45:05;;;;;;;;;;;18.90;33.60;;;;;;4984544;28;20044;-79
2022/03/23 13:47:31;;;;;;;;;;;19.10;32.40;;;;;;4993589;28;19918;-79
2022/03/23 13:50:00;;;;;;;;;;;18.80;31.60;;;;;;4993442;28;19923;-79
2022/03/23 13:52:27;;;;;;;;;;;18.90;32.80;;;;;;4993400;28;19921;-79
2022/03/23 13:54:56;;;;;;;;;;;18.90;32.60;;;;;;4993083;28;20024;-80
2022/03/23 13:57:22;;;;;;;;;;;18.80;31.10;;;;;;4973007;28;20420;-80
2022/03/23 13:59:48;;;;;;;;;;;18.70;32.00;;;;;;4985703;28;20000;-79
2022/03/23 14:02:16;;;;;;;;;;;18.70;32.80;;;;;;4994239;28;20012;-79
2022/03/23 14:04:42;;;;;;;;;;;18.80;34.40;;;;;;4972814;28;19929;-79
2022/03/23 14:07:08;;;;;;;;;;;18.80;33.30;;;;;;4980908;28;20048;-79
2022/03/23 14:09:37;;;;;;;;;;;18.70;33.90;;;;;;4992343;28;20375;-79
2022/03/23 14:12:07;;;;;;;;;;;18.60;33.80;;;;;;5007002;28;19924;-80
2022/03/23 14:14:34;;;;;;;;;;;18.70;35.20;;;;;;4993983;28;19929;-80
2022/03/23 14:17:01;;;;;;;;;;;18.60;33.30;;;;;;4976965;28;19918;-80
2022/03/23 14:19:27;;;;;;;;;;;18.40;32.50;;;;;;4978588;28;19917;-79
2022/03/23 14:21:57;;;;;;;;;;;18.50;34.60;;;;;;4995046;28;20018;-79
2022/03/23 14:24:24;;;;;;;;;;;18.60;35.00;;;;;;4985360;28;19917;-79
2022/03/23 14:26:49;;;;;;;;;;;18.70;34.40;;;;;;4976818;28;19917;-79
2022/03/23 14:29:22;;;;;;;;;;;18.80;33.80;;;;;;4976819;28;19947;-79
2022/03/23 14:31:48;;;;;;;;;;;18.80;32.30;;;;;;4985557;28;20284;-79
2022/03/23 14:34:14;;;;;;;;;;;18.60;32.80;;;;;;4976281;28;19921;-79
2022/03/23 14:36:40;;;;;;;;;;;18.70;32.60;;;;;;4983570;28;19932;-80
2022/03/23 14:39:32;;;;;;;;;;;18.60;33.40;;;;;;4980965;28;20001;-80
2022/03/23 14:41:58;;;;;;;;;;;18.50;34.40;;;;;;4981266;28;19980;-80
2022/03/23 14:44:34;;;;;;;;;;;18.40;33.90;;;;;;4985320;28;20001;-79
2022/03/23 14:47:01;;;;;;;;;;;18.40;33.90;;;;;;4988015;28;19944;-79
2022/03/23 14:49:36;;;;;;;;;;;18.40;34.60;;;;;;4983633;28;19924;-79
2022/03/23 14:52:02;;;;;;;;;;;18.40;33.80;;;;;;4984351;28;19925;-79
2022/03/23 14:54:28;;;;;;;;;;;18.30;34.60;;;;;;4975500;28;19952;-79
2022/03/23 14:56:54;;;;;;;;;;;18.30;35.00;;;;;;4975794;28;19964;-79
2022/03/23 14:59:21;;;;;;;;;;;18.50;33.70;;;;;;4978681;28;19921;-79